Flight Track Log - Related Links

Times and Time Zones

All times are in EDT time to prevent confusion due to time zone crossing. See the FDX1488 flight status page for this flight to view local times or setup timezone preferences in your user account.

Time Position Orientation Groundspeed Altitude Reporting Facility
EDT Latitude Longitude Course Direction KTS MPH feet Rate Location/Type
Wed 05:22:12 AM 35.0333 -89.9667 180° South 174 200 1,300  Level KMEM
Wed 05:23:12 AM 34.9667 -89.9667 180° South 223 257 3,600 2,619 Climbing KMEM
Wed 05:24:18 AM 34.9167 -89.9000 132° Southeast 292 336 6,800 2,659 Climbing KMEM
Wed 05:26:08 AM 34.8619 -89.7369 112° Southeast 299 344 11,400 2,435 Climbing Memphis Center
Wed 05:27:08 AM 34.8214 -89.6033 110° East 349 402 13,700 2,400 Climbing Memphis Center
Wed 05:28:08 AM 34.7725 -89.4772 115° Southeast 398 458 16,200 2,300 Climbing Memphis Center
Wed 05:29:08 AM 34.7258 -89.3617 116° Southeast 411 473 18,300 2,250 Climbing Memphis Center
Wed 05:30:08 AM 34.6706 -89.2308 117° Southeast 422 486 20,700 2,100 Climbing Memphis Center
Wed 05:31:08 AM 34.6128 -89.0978 118° Southeast 438 504 22,500 1,150 Climbing Memphis Center
Wed 05:32:08 AM 34.5528 -88.9575 117° Southeast 452 520 23,000 250 Climbing Memphis Center
Wed 05:33:08 AM 34.4886 -88.8100 118° Southeast 453 521 23,000  Level Memphis Center
Wed 05:34:08 AM 34.4306 -88.6725 117° Southeast 448 516 23,000  Level Memphis Center
Wed 05:35:08 AM 34.3700 -88.5353 118° Southeast 448 516 23,000  Level Memphis Center
Wed 05:36:08 AM 34.3117 -88.3983 117° Southeast 448 516 23,000  Level Memphis Center
Wed 05:37:08 AM 34.2511 -88.2639 119° Southeast 448 516 23,000  Level Memphis Center
Wed 05:38:08 AM 34.1942 -88.1172 115° Southeast 463 533 23,000 -630 Level Memphis Center
Wed 05:39:50 AM 34.1006 -87.9197 120° Southeast 461 531 21,300 -1,444 Descending Atlanta Center
Wed 05:40:21 AM 34.0633 -87.8378 119° Southeast 461 531 19,800 -3,200 Descending Atlanta Center
Wed 05:40:50 AM 34.0342 -87.7661 116° Southeast 450 518 18,100 -2,700 Descending Atlanta Center
Wed 05:41:21 AM 34.0067 -87.7075 119° Southeast 450 518 17,100 -2,754 Descending Atlanta Center
Wed 05:41:51 AM 33.9736 -87.6283 117° Southeast 430 495 15,300 -2,700 Descending Atlanta Center
Wed 05:42:21 AM 33.9519 -87.5797 118° Southeast 445 512 14,400 -2,556 Descending Atlanta Center
Wed 05:42:45 AM 33.9264 -87.5261 120° Southeast 417 480 13,000 -2,700 Descending Atlanta Center
Wed 05:43:21 AM 33.8992 -87.4600 116° Southeast 425 489 11,700 -1,967 Descending Atlanta Center
Wed 05:43:46 AM 33.8694 -87.3989 120° Southeast 404 465 11,000 -700 Descending Atlanta Center
Wed 05:44:21 AM 33.8439 -87.3453 120° Southeast 409 471 11,000 -492 Level Atlanta Center
Wed 05:44:47 AM 33.8014 -87.2936 135° Southeast 389 448 10,500 -600 Descending Atlanta Center
Wed 05:45:21 AM 33.7692 -87.2525 133° Southeast 394 453 10,400 -222 Descending Atlanta Center
Wed 05:45:41 AM 33.7386 -87.2214 140° Southeast 323 372 10,300 -600 Descending Atlanta Center
Wed 05:46:21 AM 33.7061 -87.1803 134° Southeast 353 406 9,800 -1,574 Descending Atlanta Center
Wed 05:46:42 AM 33.6797 -87.1517 138° Southeast 290 334 8,700 -2,300 Descending Atlanta Center
Wed 05:47:21 AM 33.6472 -87.1156 137° Southeast 321 369 7,500 -2,400 Descending Atlanta Center
Wed 05:47:42 AM 33.6189 -87.0872 140° Southeast 290 334 6,300 -2,400 Descending Atlanta Center
Wed 05:48:21 AM 33.5883 -87.0511 135° Southeast 296 341 5,100 -2,459 Descending Atlanta Center
Wed 05:48:43 AM 33.5619 -87.0228 138° Southeast 280 322 3,800 -1,663 Descending Atlanta Center
Wed 05:49:44 AM 33.5111 -86.9661 137° Southeast 241 277 2,800 -595 Descending Atlanta Center
Wed 05:50:44 AM 33.4769 -86.9128 128° Southeast 193 222 2,600 -198 Descending Atlanta Center
Wed 05:51:45 AM 33.5008 -86.8639 60° Northeast 147 169 2,400 -496 Descending Atlanta Center
Wed 05:52:45 AM 33.5250 -86.8197 57° Northeast 146 168 1,600 -793 Descending Atlanta Center
Wed 05:53:46 AM 33.5486 -86.7831 52° Northeast 140 161 800 -787 Descending Atlanta Center
Wed 05:55:00 AM 33.5500 -86.7500 73° East  Level FlightAware Approximate

Login

Don't have an account? Register now (free) for customized features, flight alerts, and more!